sensor_id;sensor_type;location;lat;lon;timestamp;P1;durP1;ratioP1;P2;durP2;ratioP2
73911;SDS011;62248;49.958;8.448;2022-07-17T00:01:28;4.10;;;1.48;;
73911;SDS011;62248;49.958;8.448;2022-07-17T00:03:53;4.28;;;1.77;;
73911;SDS011;62248;49.958;8.448;2022-07-17T00:06:19;3.55;;;1.40;;
73911;SDS011;62248;49.958;8.448;2022-07-17T00:08:44;3.38;;;1.42;;
73911;SDS011;62248;49.958;8.448;2022-07-17T00:11:10;5.65;;;1.60;;
73911;SDS011;62248;49.958;8.448;2022-07-17T00:13:35;4.45;;;1.73;;
73911;SDS011;62248;49.958;8.448;2022-07-17T00:16:01;3.58;;;1.52;;
73911;SDS011;62248;49.958;8.448;2022-07-17T00:18:27;4.65;;;1.45;;
73911;SDS011;62248;49.958;8.448;2022-07-17T00:20:52;4.20;;;1.52;;
73911;SDS011;62248;49.958;8.448;2022-07-17T00:23:17;5.35;;;1.63;;
73911;SDS011;62248;49.958;8.448;2022-07-17T00:25:44;4.22;;;1.67;;
73911;SDS011;62248;49.958;8.448;2022-07-17T00:28:09;4.10;;;1.45;;
73911;SDS011;62248;49.958;8.448;2022-07-17T00:30:35;4.03;;;1.45;;
73911;SDS011;62248;49.958;8.448;2022-07-17T00:33:00;5.18;;;1.38;;
73911;SDS011;62248;49.958;8.448;2022-07-17T00:35:26;5.63;;;1.30;;
73911;SDS011;62248;49.958;8.448;2022-07-17T00:37:51;4.85;;;1.40;;
73911;SDS011;62248;49.958;8.448;2022-07-17T00:40:18;4.95;;;1.45;;
73911;SDS011;62248;49.958;8.448;2022-07-17T00:42:45;6.53;;;1.58;;
73911;SDS011;62248;49.958;8.448;2022-07-17T00:45:11;8.02;;;1.50;;
73911;SDS011;62248;49.958;8.448;2022-07-17T00:50:19;5.97;;;1.60;;
73911;SDS011;62248;49.958;8.448;2022-07-17T00:52:45;4.40;;;1.60;;
73911;SDS011;62248;49.958;8.448;2022-07-17T00:55:11;4.70;;;1.40;;
73911;SDS011;62248;49.958;8.448;2022-07-17T00:57:39;3.60;;;1.60;;
73911;SDS011;62248;49.958;8.448;2022-07-17T01:00:05;7.80;;;1.50;;
73911;SDS011;62248;49.958;8.448;2022-07-17T01:02:36;4.05;;;1.60;;
73911;SDS011;62248;49.958;8.448;2022-07-17T01:05:03;5.32;;;1.52;;
73911;SDS011;62248;49.958;8.448;2022-07-17T01:07:29;4.35;;;1.55;;
73911;SDS011;62248;49.958;8.448;2022-07-17T01:09:55;3.53;;;1.33;;
73911;SDS011;62248;49.958;8.448;2022-07-17T01:12:20;3.10;;;1.48;;
73911;SDS011;62248;49.958;8.448;2022-07-17T01:14:46;3.47;;;1.60;;
73911;SDS011;62248;49.958;8.448;2022-07-17T01:17:12;4.22;;;1.73;;
73911;SDS011;62248;49.958;8.448;2022-07-17T01:19:37;4.97;;;1.45;;
73911;SDS011;62248;49.958;8.448;2022-07-17T01:22:03;4.45;;;1.40;;
73911;SDS011;62248;49.958;8.448;2022-07-17T01:24:28;5.25;;;1.60;;
73911;SDS011;62248;49.958;8.448;2022-07-17T01:26:54;3.92;;;1.48;;
73911;SDS011;62248;49.958;8.448;2022-07-17T01:29:19;3.50;;;1.40;;
73911;SDS011;62248;49.958;8.448;2022-07-17T01:31:45;5.30;;;1.55;;
73911;SDS011;62248;49.958;8.448;2022-07-17T01:34:11;3.83;;;1.73;;
73911;SDS011;62248;49.958;8.448;2022-07-17T01:36:40;5.28;;;1.70;;
73911;SDS011;62248;49.958;8.448;2022-07-17T01:39:06;4.70;;;1.63;;
73911;SDS011;62248;49.958;8.448;2022-07-17T01:41:32;3.55;;;1.67;;
73911;SDS011;62248;49.958;8.448;2022-07-17T01:43:57;3.88;;;1.70;;
73911;SDS011;62248;49.958;8.448;2022-07-17T01:46:24;4.43;;;1.55;;
73911;SDS011;62248;49.958;8.448;2022-07-17T01:48:50;3.88;;;1.65;;
73911;SDS011;62248;49.958;8.448;2022-07-17T01:51:15;4.07;;;1.63;;
73911;SDS011;62248;49.958;8.448;2022-07-17T01:53:41;5.47;;;1.90;;
73911;SDS011;62248;49.958;8.448;2022-07-17T01:56:06;4.82;;;1.60;;
73911;SDS011;62248;49.958;8.448;2022-07-17T01:58:32;5.47;;;1.90;;
73911;SDS011;62248;49.958;8.448;2022-07-17T02:00:58;4.78;;;1.83;;
73911;SDS011;62248;49.958;8.448;2022-07-17T02:03:24;6.50;;;1.60;;
73911;SDS011;62248;49.958;8.448;2022-07-17T02:05:49;6.43;;;1.73;;
73911;SDS011;62248;49.958;8.448;2022-07-17T02:08:15;4.20;;;1.85;;
73911;SDS011;62248;49.958;8.448;2022-07-17T02:10:40;6.15;;;1.90;;
73911;SDS011;62248;49.958;8.448;2022-07-17T02:13:06;5.32;;;2.10;;
73911;SDS011;62248;49.958;8.448;2022-07-17T02:15:31;5.75;;;1.90;;
73911;SDS011;62248;49.958;8.448;2022-07-17T02:17:57;7.28;;;2.28;;
73911;SDS011;62248;49.958;8.448;2022-07-17T02:20:23;6.55;;;2.35;;
73911;SDS011;62248;49.958;8.448;2022-07-17T02:22:49;4.78;;;2.10;;
73911;SDS011;62248;49.958;8.448;2022-07-17T02:25:14;5.18;;;2.40;;
73911;SDS011;62248;49.958;8.448;2022-07-17T02:27:40;5.03;;;2.08;;
73911;SDS011;62248;49.958;8.448;2022-07-17T02:30:10;9.07;;;2.30;;
73911;SDS011;62248;49.958;8.448;2022-07-17T02:32:38;6.07;;;2.83;;
73911;SDS011;62248;49.958;8.448;2022-07-17T02:35:04;5.95;;;2.28;;
73911;SDS011;62248;49.958;8.448;2022-07-17T02:37:31;5.88;;;2.40;;
73911;SDS011;62248;49.958;8.448;2022-07-17T02:39:56;6.07;;;2.22;;
73911;SDS011;62248;49.958;8.448;2022-07-17T02:42:24;5.63;;;2.22;;
73911;SDS011;62248;49.958;8.448;2022-07-17T02:44:50;6.28;;;2.65;;
73911;SDS011;62248;49.958;8.448;2022-07-17T02:47:25;5.43;;;2.22;;
73911;SDS011;62248;49.958;8.448;2022-07-17T02:49:52;4.32;;;2.40;;
73911;SDS011;62248;49.958;8.448;2022-07-17T02:52:18;5.85;;;2.30;;
73911;SDS011;62248;49.958;8.448;2022-07-17T02:54:44;7.82;;;2.42;;
73911;SDS011;62248;49.958;8.448;2022-07-17T02:57:09;5.05;;;2.22;;
73911;SDS011;62248;49.958;8.448;2022-07-17T02:59:35;7.70;;;2.42;;
73911;SDS011;62248;49.958;8.448;2022-07-17T03:02:00;7.60;;;2.72;;
73911;SDS011;62248;49.958;8.448;2022-07-17T03:04:26;7.60;;;2.30;;
73911;SDS011;62248;49.958;8.448;2022-07-17T03:06:51;4.82;;;2.15;;
73911;SDS011;62248;49.958;8.448;2022-07-17T03:09:17;4.43;;;2.03;;
73911;SDS011;62248;49.958;8.448;2022-07-17T03:11:42;5.57;;;2.08;;
73911;SDS011;62248;49.958;8.448;2022-07-17T03:14:09;6.53;;;2.22;;
73911;SDS011;62248;49.958;8.448;2022-07-17T03:16:34;5.38;;;1.98;;
73911;SDS011;62248;49.958;8.448;2022-07-17T03:19:00;4.35;;;1.98;;
73911;SDS011;62248;49.958;8.448;2022-07-17T03:21:25;5.93;;;2.10;;
73911;SDS011;62248;49.958;8.448;2022-07-17T03:23:51;4.85;;;1.90;;
73911;SDS011;62248;49.958;8.448;2022-07-17T03:26:16;6.57;;;2.13;;
73911;SDS011;62248;49.958;8.448;2022-07-17T03:28:42;6.65;;;1.77;;
73911;SDS011;62248;49.958;8.448;2022-07-17T03:31:07;5.82;;;1.80;;
73911;SDS011;62248;49.958;8.448;2022-07-17T03:33:33;4.38;;;1.73;;
73911;SDS011;62248;49.958;8.448;2022-07-17T03:35:59;7.93;;;1.98;;
73911;SDS011;62248;49.958;8.448;2022-07-17T03:38:24;5.35;;;1.65;;
73911;SDS011;62248;49.958;8.448;2022-07-17T03:40:50;5.40;;;2.03;;
73911;SDS011;62248;49.958;8.448;2022-07-17T03:43:15;4.60;;;1.60;;
73911;SDS011;62248;49.958;8.448;2022-07-17T03:45:41;4.57;;;1.58;;
73911;SDS011;62248;49.958;8.448;2022-07-17T03:48:07;3.13;;;1.40;;
73911;SDS011;62248;49.958;8.448;2022-07-17T03:50:33;3.83;;;1.60;;
73911;SDS011;62248;49.958;8.448;2022-07-17T03:52:58;3.33;;;1.38;;
73911;SDS011;62248;49.958;8.448;2022-07-17T03:55:24;3.80;;;1.35;;
73911;SDS011;62248;49.958;8.448;2022-07-17T03:57:49;4.70;;;1.60;;
73911;SDS011;62248;49.958;8.448;2022-07-17T04:00:15;4.95;;;1.73;;
73911;SDS011;62248;49.958;8.448;2022-07-17T04:02:40;5.30;;;1.60;;
73911;SDS011;62248;49.958;8.448;2022-07-17T04:05:06;5.00;;;1.63;;
73911;SDS011;62248;49.958;8.448;2022-07-17T04:07:38;3.75;;;1.58;;
73911;SDS011;62248;49.958;8.448;2022-07-17T04:10:05;4.93;;;1.45;;
73911;SDS011;62248;49.958;8.448;2022-07-17T04:12:31;5.70;;;1.58;;
73911;SDS011;62248;49.958;8.448;2022-07-17T04:14:57;3.80;;;1.48;;
73911;SDS011;62248;49.958;8.448;2022-07-17T04:17:23;4.85;;;1.52;;
73911;SDS011;62248;49.958;8.448;2022-07-17T04:19:48;3.65;;;1.42;;
73911;SDS011;62248;49.958;8.448;2022-07-17T04:22:14;3.30;;;1.63;;
73911;SDS011;62248;49.958;8.448;2022-07-17T04:24:40;3.85;;;1.52;;
73911;SDS011;62248;49.958;8.448;2022-07-17T04:27:05;4.60;;;1.30;;
73911;SDS011;62248;49.958;8.448;2022-07-17T04:29:31;4.90;;;1.50;;
73911;SDS011;62248;49.958;8.448;2022-07-17T04:31:57;6.05;;;1.70;;
73911;SDS011;62248;49.958;8.448;2022-07-17T04:34:22;3.78;;;1.38;;
73911;SDS011;62248;49.958;8.448;2022-07-17T04:36:48;4.05;;;1.52;;
73911;SDS011;62248;49.958;8.448;2022-07-17T04:39:13;3.38;;;1.30;;
73911;SDS011;62248;49.958;8.448;2022-07-17T04:41:39;3.25;;;1.17;;
73911;SDS011;62248;49.958;8.448;2022-07-17T04:44:04;3.95;;;1.40;;
73911;SDS011;62248;49.958;8.448;2022-07-17T04:46:30;3.40;;;1.35;;
73911;SDS011;62248;49.958;8.448;2022-07-17T04:48:55;3.38;;;1.20;;
73911;SDS011;62248;49.958;8.448;2022-07-17T04:51:21;3.40;;;1.30;;
73911;SDS011;62248;49.958;8.448;2022-07-17T04:53:46;5.18;;;1.27;;
73911;SDS011;62248;49.958;8.448;2022-07-17T04:56:12;4.68;;;1.27;;
73911;SDS011;62248;49.958;8.448;2022-07-17T04:58:37;5.20;;;1.30;;
73911;SDS011;62248;49.958;8.448;2022-07-17T05:01:03;3.17;;;1.20;;
73911;SDS011;62248;49.958;8.448;2022-07-17T05:03:28;3.72;;;1.40;;
73911;SDS011;62248;49.958;8.448;2022-07-17T05:05:54;4.20;;;1.40;;
73911;SDS011;62248;49.958;8.448;2022-07-17T05:08:19;3.47;;;1.25;;
73911;SDS011;62248;49.958;8.448;2022-07-17T05:10:45;3.08;;;1.30;;
73911;SDS011;62248;49.958;8.448;2022-07-17T05:13:10;4.32;;;1.38;;
73911;SDS011;62248;49.958;8.448;2022-07-17T05:15:37;3.47;;;1.27;;
73911;SDS011;62248;49.958;8.448;2022-07-17T05:18:03;2.55;;;1.10;;
73911;SDS011;62248;49.958;8.448;2022-07-17T05:20:28;2.42;;;1.13;;
73911;SDS011;62248;49.958;8.448;2022-07-17T05:22:54;3.92;;;1.40;;
73911;SDS011;62248;49.958;8.448;2022-07-17T05:25:19;4.45;;;1.30;;
73911;SDS011;62248;49.958;8.448;2022-07-17T05:27:45;3.22;;;1.45;;
73911;SDS011;62248;49.958;8.448;2022-07-17T05:30:10;5.63;;;1.67;;
73911;SDS011;62248;49.958;8.448;2022-07-17T05:32:36;2.67;;;1.08;;
73911;SDS011;62248;49.958;8.448;2022-07-17T05:35:02;3.38;;;1.17;;
73911;SDS011;62248;49.958;8.448;2022-07-17T05:37:27;4.20;;;1.20;;
73911;SDS011;62248;49.958;8.448;2022-07-17T05:39:53;4.55;;;1.33;;
73911;SDS011;62248;49.958;8.448;2022-07-17T05:42:19;2.92;;;1.10;;
73911;SDS011;62248;49.958;8.448;2022-07-17T05:44:44;3.95;;;1.35;;
73911;SDS011;62248;49.958;8.448;2022-07-17T05:47:10;4.22;;;1.10;;
73911;SDS011;62248;49.958;8.448;2022-07-17T05:49:35;3.97;;;1.02;;
73911;SDS011;62248;49.958;8.448;2022-07-17T05:52:01;3.47;;;1.50;;
73911;SDS011;62248;49.958;8.448;2022-07-17T05:54:26;4.82;;;1.30;;
73911;SDS011;62248;49.958;8.448;2022-07-17T05:56:52;3.40;;;1.30;;
73911;SDS011;62248;49.958;8.448;2022-07-17T05:59:17;3.28;;;1.45;;
73911;SDS011;62248;49.958;8.448;2022-07-17T06:01:43;3.55;;;1.25;;
73911;SDS011;62248;49.958;8.448;2022-07-17T06:04:08;4.22;;;1.42;;
73911;SDS011;62248;49.958;8.448;2022-07-17T06:06:34;3.13;;;1.05;;
73911;SDS011;62248;49.958;8.448;2022-07-17T06:08:59;3.83;;;1.40;;
73911;SDS011;62248;49.958;8.448;2022-07-17T06:11:26;3.17;;;1.35;;
73911;SDS011;62248;49.958;8.448;2022-07-17T06:13:51;4.10;;;1.13;;
73911;SDS011;62248;49.958;8.448;2022-07-17T06:16:17;5.72;;;1.02;;
73911;SDS011;62248;49.958;8.448;2022-07-17T06:18:42;4.45;;;1.27;;
73911;SDS011;62248;49.958;8.448;2022-07-17T06:21:08;2.60;;;1.05;;
73911;SDS011;62248;49.958;8.448;2022-07-17T06:23:33;2.72;;;1.00;;
73911;SDS011;62248;49.958;8.448;2022-07-17T06:25:59;2.58;;;1.00;;
73911;SDS011;62248;49.958;8.448;2022-07-17T06:28:24;3.42;;;1.08;;
73911;SDS011;62248;49.958;8.448;2022-07-17T06:30:50;3.28;;;1.25;;
73911;SDS011;62248;49.958;8.448;2022-07-17T06:33:15;2.70;;;1.20;;
73911;SDS011;62248;49.958;8.448;2022-07-17T06:35:41;5.32;;;1.20;;
73911;SDS011;62248;49.958;8.448;2022-07-17T06:38:06;2.10;;;0.98;;
73911;SDS011;62248;49.958;8.448;2022-07-17T06:40:33;4.35;;;1.00;;
73911;SDS011;62248;49.958;8.448;2022-07-17T06:42:59;4.88;;;1.20;;
73911;SDS011;62248;49.958;8.448;2022-07-17T06:45:24;3.30;;;1.00;;
73911;SDS011;62248;49.958;8.448;2022-07-17T06:47:50;4.45;;;1.08;;
73911;SDS011;62248;49.958;8.448;2022-07-17T06:50:15;2.95;;;1.17;;
73911;SDS011;62248;49.958;8.448;2022-07-17T06:52:41;3.47;;;1.10;;
73911;SDS011;62248;49.958;8.448;2022-07-17T06:55:06;3.85;;;1.05;;
73911;SDS011;62248;49.958;8.448;2022-07-17T06:57:32;4.18;;;1.02;;
73911;SDS011;62248;49.958;8.448;2022-07-17T06:59:57;2.85;;;1.27;;
73911;SDS011;62248;49.958;8.448;2022-07-17T07:02:23;3.28;;;1.20;;
73911;SDS011;62248;49.958;8.448;2022-07-17T07:04:48;3.10;;;1.05;;
73911;SDS011;62248;49.958;8.448;2022-07-17T07:07:14;5.88;;;1.10;;
73911;SDS011;62248;49.958;8.448;2022-07-17T07:09:39;2.50;;;1.00;;
73911;SDS011;62248;49.958;8.448;2022-07-17T07:12:05;2.95;;;1.00;;
73911;SDS011;62248;49.958;8.448;2022-07-17T07:14:32;4.43;;;1.52;;
73911;SDS011;62248;49.958;8.448;2022-07-17T07:16:57;3.67;;;1.15;;
73911;SDS011;62248;49.958;8.448;2022-07-17T07:19:23;3.42;;;1.10;;
73911;SDS011;62248;49.958;8.448;2022-07-17T07:21:48;2.97;;;1.08;;
73911;SDS011;62248;49.958;8.448;2022-07-17T07:24:14;2.30;;;0.95;;
73911;SDS011;62248;49.958;8.448;2022-07-17T07:26:39;3.22;;;0.90;;
73911;SDS011;62248;49.958;8.448;2022-07-17T07:29:05;3.17;;;1.00;;
73911;SDS011;62248;49.958;8.448;2022-07-17T07:31:30;4.40;;;1.00;;
73911;SDS011;62248;49.958;8.448;2022-07-17T07:34:01;3.50;;;1.00;;
73911;SDS011;62248;49.958;8.448;2022-07-17T07:36:26;3.75;;;1.17;;
73911;SDS011;62248;49.958;8.448;2022-07-17T07:38:52;3.42;;;1.20;;
73911;SDS011;62248;49.958;8.448;2022-07-17T07:41:18;3.20;;;1.05;;
73911;SDS011;62248;49.958;8.448;2022-07-17T07:43:44;3.95;;;0.90;;
73911;SDS011;62248;49.958;8.448;2022-07-17T07:46:09;4.60;;;1.25;;
73911;SDS011;62248;49.958;8.448;2022-07-17T07:48:35;2.65;;;1.10;;
73911;SDS011;62248;49.958;8.448;2022-07-17T07:51:00;3.28;;;1.20;;
73911;SDS011;62248;49.958;8.448;2022-07-17T07:53:26;4.70;;;1.00;;
73911;SDS011;62248;49.958;8.448;2022-07-17T07:55:52;8.35;;;1.17;;
73911;SDS011;62248;49.958;8.448;2022-07-17T07:58:18;4.93;;;1.42;;
73911;SDS011;62248;49.958;8.448;2022-07-17T08:00:44;4.60;;;1.25;;
73911;SDS011;62248;49.958;8.448;2022-07-17T08:03:10;5.82;;;1.35;;
73911;SDS011;62248;49.958;8.448;2022-07-17T08:05:36;3.97;;;1.10;;
73911;SDS011;62248;49.958;8.448;2022-07-17T08:08:02;4.32;;;1.17;;
73911;SDS011;62248;49.958;8.448;2022-07-17T08:10:27;3.40;;;1.15;;
73911;SDS011;62248;49.958;8.448;2022-07-17T08:12:53;4.57;;;1.10;;
73911;SDS011;62248;49.958;8.448;2022-07-17T08:15:21;5.75;;;1.00;;
73911;SDS011;62248;49.958;8.448;2022-07-17T08:17:48;4.63;;;1.20;;
73911;SDS011;62248;49.958;8.448;2022-07-17T08:20:15;4.07;;;1.10;;
73911;SDS011;62248;49.958;8.448;2022-07-17T08:22:41;3.35;;;1.15;;
73911;SDS011;62248;49.958;8.448;2022-07-17T08:25:07;2.80;;;1.10;;
73911;SDS011;62248;49.958;8.448;2022-07-17T08:27:37;4.10;;;1.10;;
73911;SDS011;62248;49.958;8.448;2022-07-17T08:30:04;4.57;;;1.15;;
73911;SDS011;62248;49.958;8.448;2022-07-17T08:32:30;3.05;;;1.10;;
73911;SDS011;62248;49.958;8.448;2022-07-17T08:34:56;3.47;;;1.00;;
73911;SDS011;62248;49.958;8.448;2022-07-17T08:37:22;2.78;;;0.90;;
73911;SDS011;62248;49.958;8.448;2022-07-17T08:39:47;4.55;;;1.20;;
73911;SDS011;62248;49.958;8.448;2022-07-17T08:42:13;3.63;;;1.30;;
73911;SDS011;62248;49.958;8.448;2022-07-17T08:44:47;6.88;;;1.58;;
73911;SDS011;62248;49.958;8.448;2022-07-17T08:47:13;3.53;;;1.00;;
73911;SDS011;62248;49.958;8.448;2022-07-17T08:49:41;3.22;;;1.05;;
73911;SDS011;62248;49.958;8.448;2022-07-17T08:52:10;4.97;;;1.27;;
73911;SDS011;62248;49.958;8.448;2022-07-17T08:54:36;3.00;;;0.90;;
73911;SDS011;62248;49.958;8.448;2022-07-17T08:57:02;3.08;;;1.00;;
73911;SDS011;62248;49.958;8.448;2022-07-17T08:59:31;3.17;;;1.13;;
73911;SDS011;62248;49.958;8.448;2022-07-17T09:01:58;3.42;;;1.08;;
73911;SDS011;62248;49.958;8.448;2022-07-17T09:04:24;3.78;;;1.10;;
73911;SDS011;62248;49.958;8.448;2022-07-17T09:07:03;3.80;;;1.20;;
73911;SDS011;62248;49.958;8.448;2022-07-17T09:09:29;2.60;;;0.90;;
73911;SDS011;62248;49.958;8.448;2022-07-17T09:11:56;2.45;;;1.00;;
73911;SDS011;62248;49.958;8.448;2022-07-17T09:14:24;5.32;;;1.10;;
73911;SDS011;62248;49.958;8.448;2022-07-17T09:16:56;3.80;;;1.25;;
73911;SDS011;62248;49.958;8.448;2022-07-17T09:19:25;2.78;;;1.20;;
73911;SDS011;62248;49.958;8.448;2022-07-17T09:22:03;2.65;;;1.00;;
73911;SDS011;62248;49.958;8.448;2022-07-17T09:24:39;3.97;;;1.30;;
73911;SDS011;62248;49.958;8.448;2022-07-17T09:27:09;2.60;;;0.90;;
73911;SDS011;62248;49.958;8.448;2022-07-17T09:29:35;4.13;;;0.98;;
73911;SDS011;62248;49.958;8.448;2022-07-17T09:32:35;8.85;;;1.63;;
73911;SDS011;62248;49.958;8.448;2022-07-17T09:35:03;6.90;;;1.15;;
73911;SDS011;62248;49.958;8.448;2022-07-17T09:37:30;6.05;;;1.75;;
73911;SDS011;62248;49.958;8.448;2022-07-17T09:39:56;6.93;;;1.40;;
73911;SDS011;62248;49.958;8.448;2022-07-17T09:42:29;5.55;;;1.40;;
73911;SDS011;62248;49.958;8.448;2022-07-17T09:44:57;6.80;;;1.55;;
73911;SDS011;62248;49.958;8.448;2022-07-17T09:47:34;7.00;;;1.35;;
73911;SDS011;62248;49.958;8.448;2022-07-17T09:50:03;4.85;;;1.10;;
73911;SDS011;62248;49.958;8.448;2022-07-17T09:52:32;5.47;;;1.15;;
73911;SDS011;62248;49.958;8.448;2022-07-17T09:54:59;3.60;;;1.23;;
73911;SDS011;62248;49.958;8.448;2022-07-17T09:57:29;9.13;;;1.60;;
73911;SDS011;62248;49.958;8.448;2022-07-17T09:59:58;5.90;;;1.33;;
73911;SDS011;62248;49.958;8.448;2022-07-17T10:02:26;6.07;;;1.40;;
73911;SDS011;62248;49.958;8.448;2022-07-17T10:04:52;10.05;;;1.90;;
73911;SDS011;62248;49.958;8.448;2022-07-17T10:07:20;6.50;;;1.45;;
73911;SDS011;62248;49.958;8.448;2022-07-17T10:09:46;9.75;;;2.15;;
73911;SDS011;62248;49.958;8.448;2022-07-17T10:12:12;8.00;;;1.73;;
73911;SDS011;62248;49.958;8.448;2022-07-17T10:14:38;7.25;;;1.50;;
73911;SDS011;62248;49.958;8.448;2022-07-17T10:17:09;9.90;;;1.65;;
73911;SDS011;62248;49.958;8.448;2022-07-17T10:19:48;4.72;;;1.40;;
73911;SDS011;62248;49.958;8.448;2022-07-17T10:22:15;4.82;;;1.40;;
73911;SDS011;62248;49.958;8.448;2022-07-17T10:24:45;6.30;;;1.60;;
73911;SDS011;62248;49.958;8.448;2022-07-17T10:27:18;5.53;;;1.55;;
73911;SDS011;62248;49.958;8.448;2022-07-17T10:29:45;4.40;;;1.45;;
73911;SDS011;62248;49.958;8.448;2022-07-17T10:32:17;8.85;;;1.73;;
73911;SDS011;62248;49.958;8.448;2022-07-17T10:34:44;10.48;;;1.75;;
73911;SDS011;62248;49.958;8.448;2022-07-17T10:37:17;4.95;;;1.33;;
73911;SDS011;62248;49.958;8.448;2022-07-17T10:39:58;7.35;;;1.55;;
73911;SDS011;62248;49.958;8.448;2022-07-17T10:45:23;5.38;;;1.20;;
73911;SDS011;62248;49.958;8.448;2022-07-17T10:50:18;6.22;;;1.38;;
73911;SDS011;62248;49.958;8.448;2022-07-17T10:52:55;4.72;;;1.20;;
73911;SDS011;62248;49.958;8.448;2022-07-17T10:55:22;5.28;;;1.33;;
73911;SDS011;62248;49.958;8.448;2022-07-17T10:57:48;4.15;;;1.38;;
73911;SDS011;62248;49.958;8.448;2022-07-17T11:00:14;4.95;;;1.30;;
73911;SDS011;62248;49.958;8.448;2022-07-17T11:02:41;8.82;;;1.50;;
73911;SDS011;62248;49.958;8.448;2022-07-17T11:05:11;5.93;;;1.38;;
73911;SDS011;62248;49.958;8.448;2022-07-17T11:07:56;9.25;;;1.55;;
73911;SDS011;62248;49.958;8.448;2022-07-17T11:10:24;9.50;;;1.83;;
73911;SDS011;62248;49.958;8.448;2022-07-17T11:12:54;5.80;;;1.33;;
73911;SDS011;62248;49.958;8.448;2022-07-17T11:15:21;5.40;;;1.48;;
73911;SDS011;62248;49.958;8.448;2022-07-17T11:17:48;4.20;;;1.50;;
73911;SDS011;62248;49.958;8.448;2022-07-17T11:20:14;6.10;;;1.52;;
73911;SDS011;62248;49.958;8.448;2022-07-17T11:22:41;3.53;;;1.45;;
73911;SDS011;62248;49.958;8.448;2022-07-17T11:25:07;4.93;;;1.33;;
73911;SDS011;62248;49.958;8.448;2022-07-17T11:27:34;8.00;;;1.50;;
73911;SDS011;62248;49.958;8.448;2022-07-17T11:30:00;9.18;;;1.52;;
73911;SDS011;62248;49.958;8.448;2022-07-17T11:32:34;7.30;;;1.60;;
73911;SDS011;62248;49.958;8.448;2022-07-17T11:35:00;4.82;;;1.33;;
73911;SDS011;62248;49.958;8.448;2022-07-17T11:37:28;7.65;;;1.50;;
73911;SDS011;62248;49.958;8.448;2022-07-17T11:39:55;5.53;;;1.42;;
73911;SDS011;62248;49.958;8.448;2022-07-17T11:42:21;5.53;;;1.33;;
73911;SDS011;62248;49.958;8.448;2022-07-17T11:44:51;7.50;;;1.70;;
73911;SDS011;62248;49.958;8.448;2022-07-17T11:47:20;6.57;;;1.80;;
73911;SDS011;62248;49.958;8.448;2022-07-17T11:49:49;5.90;;;1.33;;
73911;SDS011;62248;49.958;8.448;2022-07-17T11:52:19;5.20;;;1.55;;
73911;SDS011;62248;49.958;8.448;2022-07-17T11:54:49;4.40;;;1.27;;
73911;SDS011;62248;49.958;8.448;2022-07-17T11:57:17;6.75;;;1.63;;
73911;SDS011;62248;49.958;8.448;2022-07-17T11:59:43;6.95;;;1.48;;
73911;SDS011;62248;49.958;8.448;2022-07-17T12:02:14;5.60;;;1.48;;
73911;SDS011;62248;49.958;8.448;2022-07-17T12:04:51;6.75;;;1.50;;
73911;SDS011;62248;49.958;8.448;2022-07-17T12:07:17;4.35;;;1.13;;
73911;SDS011;62248;49.958;8.448;2022-07-17T12:09:43;4.68;;;1.33;;
73911;SDS011;62248;49.958;8.448;2022-07-17T12:12:22;5.15;;;1.58;;
73911;SDS011;62248;49.958;8.448;2022-07-17T12:14:51;5.55;;;1.10;;
73911;SDS011;62248;49.958;8.448;2022-07-17T12:17:23;3.95;;;1.33;;
73911;SDS011;62248;49.958;8.448;2022-07-17T12:19:49;4.68;;;1.40;;
73911;SDS011;62248;49.958;8.448;2022-07-17T12:22:16;6.43;;;1.48;;
73911;SDS011;62248;49.958;8.448;2022-07-17T12:24:42;5.00;;;1.23;;
73911;SDS011;62248;49.958;8.448;2022-07-17T12:27:10;4.30;;;1.23;;
73911;SDS011;62248;49.958;8.448;2022-07-17T12:29:40;5.30;;;1.10;;
73911;SDS011;62248;49.958;8.448;2022-07-17T12:32:10;5.68;;;1.10;;
73911;SDS011;62248;49.958;8.448;2022-07-17T12:34:38;4.90;;;1.20;;
73911;SDS011;62248;49.958;8.448;2022-07-17T12:37:12;5.90;;;1.50;;
73911;SDS011;62248;49.958;8.448;2022-07-17T12:39:38;6.32;;;1.40;;
73911;SDS011;62248;49.958;8.448;2022-07-17T12:42:04;7.68;;;1.50;;
73911;SDS011;62248;49.958;8.448;2022-07-17T12:44:29;4.85;;;1.52;;
73911;SDS011;62248;49.958;8.448;2022-07-17T12:46:55;3.75;;;0.90;;
73911;SDS011;62248;49.958;8.448;2022-07-17T12:49:21;5.05;;;1.40;;
73911;SDS011;62248;49.958;8.448;2022-07-17T12:51:46;3.33;;;1.33;;
73911;SDS011;62248;49.958;8.448;2022-07-17T12:54:12;5.10;;;1.30;;
73911;SDS011;62248;49.958;8.448;2022-07-17T12:56:38;4.68;;;1.10;;
73911;SDS011;62248;49.958;8.448;2022-07-17T12:59:03;6.65;;;1.60;;
73911;SDS011;62248;49.958;8.448;2022-07-17T13:01:29;5.82;;;1.30;;
73911;SDS011;62248;49.958;8.448;2022-07-17T13:03:54;3.92;;;1.17;;
73911;SDS011;62248;49.958;8.448;2022-07-17T13:06:20;4.63;;;1.33;;
73911;SDS011;62248;49.958;8.448;2022-07-17T13:08:46;4.43;;;1.05;;
73911;SDS011;62248;49.958;8.448;2022-07-17T13:11:11;4.18;;;1.30;;
73911;SDS011;62248;49.958;8.448;2022-07-17T13:13:37;7.00;;;1.48;;
73911;SDS011;62248;49.958;8.448;2022-07-17T13:16:02;4.90;;;1.30;;
73911;SDS011;62248;49.958;8.448;2022-07-17T13:18:29;7.05;;;1.60;;
73911;SDS011;62248;49.958;8.448;2022-07-17T13:20:55;5.95;;;1.42;;
73911;SDS011;62248;49.958;8.448;2022-07-17T13:23:20;5.07;;;1.30;;
73911;SDS011;62248;49.958;8.448;2022-07-17T13:25:46;5.43;;;1.30;;
73911;SDS011;62248;49.958;8.448;2022-07-17T13:28:12;4.63;;;1.33;;
73911;SDS011;62248;49.958;8.448;2022-07-17T13:30:37;7.55;;;1.23;;
73911;SDS011;62248;49.958;8.448;2022-07-17T13:33:03;4.22;;;1.52;;
73911;SDS011;62248;49.958;8.448;2022-07-17T13:35:30;5.55;;;1.33;;
73911;SDS011;62248;49.958;8.448;2022-07-17T13:37:56;6.50;;;1.20;;
73911;SDS011;62248;49.958;8.448;2022-07-17T13:40:27;4.85;;;1.10;;
73911;SDS011;62248;49.958;8.448;2022-07-17T13:42:54;6.88;;;1.17;;
73911;SDS011;62248;49.958;8.448;2022-07-17T13:45:19;4.65;;;1.27;;
73911;SDS011;62248;49.958;8.448;2022-07-17T13:47:45;5.18;;;1.00;;
73911;SDS011;62248;49.958;8.448;2022-07-17T13:50:10;3.33;;;0.80;;
73911;SDS011;62248;49.958;8.448;2022-07-17T13:52:36;4.20;;;1.02;;
73911;SDS011;62248;49.958;8.448;2022-07-17T13:55:05;5.35;;;1.10;;
73911;SDS011;62248;49.958;8.448;2022-07-17T13:57:31;4.57;;;0.90;;
73911;SDS011;62248;49.958;8.448;2022-07-17T13:59:57;4.53;;;1.10;;
73911;SDS011;62248;49.958;8.448;2022-07-17T14:02:22;4.80;;;1.02;;
73911;SDS011;62248;49.958;8.448;2022-07-17T14:04:48;2.67;;;0.82;;
73911;SDS011;62248;49.958;8.448;2022-07-17T14:07:13;3.47;;;0.90;;
73911;SDS011;62248;49.958;8.448;2022-07-17T14:09:39;4.18;;;1.17;;
73911;SDS011;62248;49.958;8.448;2022-07-17T14:12:05;4.97;;;1.33;;
73911;SDS011;62248;49.958;8.448;2022-07-17T14:14:31;4.85;;;1.23;;
73911;SDS011;62248;49.958;8.448;2022-07-17T14:16:56;4.60;;;1.20;;
73911;SDS011;62248;49.958;8.448;2022-07-17T14:19:22;5.03;;;1.27;;
73911;SDS011;62248;49.958;8.448;2022-07-17T14:21:47;4.85;;;1.00;;
73911;SDS011;62248;49.958;8.448;2022-07-17T14:24:13;3.95;;;0.90;;
73911;SDS011;62248;49.958;8.448;2022-07-17T14:26:39;4.50;;;1.00;;
73911;SDS011;62248;49.958;8.448;2022-07-17T14:29:07;3.35;;;1.10;;
73911;SDS011;62248;49.958;8.448;2022-07-17T14:31:33;3.55;;;0.98;;
73911;SDS011;62248;49.958;8.448;2022-07-17T14:33:59;4.07;;;1.17;;
73911;SDS011;62248;49.958;8.448;2022-07-17T14:36:25;3.47;;;1.25;;
73911;SDS011;62248;49.958;8.448;2022-07-17T14:38:50;3.55;;;1.13;;
73911;SDS011;62248;49.958;8.448;2022-07-17T14:41:16;3.60;;;1.13;;
73911;SDS011;62248;49.958;8.448;2022-07-17T14:43:41;4.18;;;1.13;;
73911;SDS011;62248;49.958;8.448;2022-07-17T14:46:07;6.50;;;1.30;;
73911;SDS011;62248;49.958;8.448;2022-07-17T14:48:32;3.70;;;0.80;;
73911;SDS011;62248;49.958;8.448;2022-07-17T14:50:58;5.00;;;1.00;;
73911;SDS011;62248;49.958;8.448;2022-07-17T14:53:23;4.03;;;1.00;;